Impacts TAF Board
For situational awareness. Not to be used for flight planning purposes.
IDs:

KIAD - Washington/Dulles In, VA, US

Issued at 2030 UTC 20 Jun 2019
Updated at 2158 UTC 20 Jun 2019
Potential Impact None Slight Moderate High
Time<<21/10Z 21/11Z 21/12Z 21/13Z 21/14Z 21/15Z 21/16Z 21/17Z 21/18Z 21/19Z 21/20Z 21/21Z 21/22Z>>
Type PRVL PRVL PRVL PRVL PRVL PRVL PRVL PRVL PRVL PRVL PRVL PRVL PRVL
VIS >6 >6 >6 >6 >6 >6 >6 >6 >6 >6 >6 >6 >6
CIG -- -- -- -- -- -- -- -- -- -- -- -- --
Cover SCT SCT SCT SCT SCT SCT SCT SCT SCT SCT SCT SCT SCT
FltCat VFR VFR VFR VFR VFR VFR VFR VFR VFR VFR VFR VFR VFR
WX -- -- -- -- -- -- -- -- -- -- -- -- --
WDir 290 290 290 290 290 290 290 290 290 290 290 290 290
WSpd 10 10 10 10 10 10 10 10 10 10 10 10 10
WGst 22 22 22 22 22 22 22 22 22 22 22 22 22
Raw TAF
KIAD 202030Z 2021/2124 28012G16KT P6SM VCSH BKN060
  FM210000 25008KT P6SM SCT045 BKN120
  FM210800 29010G22KT P6SM FEW035 SCT070


METAR Board
Radar Display
Forecast Discussion
For situational awareness. Not to be used for flight planning purposes.